sensor_id;sensor_type;location;lat;lon;timestamp;P1;durP1;ratioP1;P2;durP2;ratioP2
20861;SDS011;10591;52.532;13.348;2023-07-22T00:01:06;7.65;;;6.95;;
20861;SDS011;10591;52.532;13.348;2023-07-22T00:03:38;7.67;;;7.08;;
20861;SDS011;10591;52.532;13.348;2023-07-22T00:06:11;7.03;;;6.45;;
20861;SDS011;10591;52.532;13.348;2023-07-22T00:08:41;7.95;;;7.03;;
20861;SDS011;10591;52.532;13.348;2023-07-22T00:11:13;7.00;;;6.40;;
20861;SDS011;10591;52.532;13.348;2023-07-22T00:13:46;7.03;;;6.33;;
20861;SDS011;10591;52.532;13.348;2023-07-22T00:16:17;6.65;;;6.05;;
20861;SDS011;10591;52.532;13.348;2023-07-22T00:18:47;7.05;;;6.37;;
20861;SDS011;10591;52.532;13.348;2023-07-22T00:21:19;7.70;;;6.90;;
20861;SDS011;10591;52.532;13.348;2023-07-22T00:23:50;7.50;;;6.72;;
20861;SDS011;10591;52.532;13.348;2023-07-22T00:26:21;7.03;;;6.42;;
20861;SDS011;10591;52.532;13.348;2023-07-22T00:28:51;6.85;;;6.35;;
20861;SDS011;10591;52.532;13.348;2023-07-22T00:31:22;7.22;;;6.53;;
20861;SDS011;10591;52.532;13.348;2023-07-22T00:33:55;7.12;;;6.53;;
20861;SDS011;10591;52.532;13.348;2023-07-22T00:36:26;6.80;;;6.15;;
20861;SDS011;10591;52.532;13.348;2023-07-22T00:38:58;7.47;;;6.78;;
20861;SDS011;10591;52.532;13.348;2023-07-22T00:41:30;6.87;;;6.28;;
20861;SDS011;10591;52.532;13.348;2023-07-22T00:44:02;7.95;;;6.90;;
20861;SDS011;10591;52.532;13.348;2023-07-22T00:46:35;6.75;;;6.20;;
20861;SDS011;10591;52.532;13.348;2023-07-22T00:49:06;7.08;;;6.45;;
20861;SDS011;10591;52.532;13.348;2023-07-22T00:51:40;7.25;;;6.53;;
20861;SDS011;10591;52.532;13.348;2023-07-22T00:54:10;7.58;;;6.97;;
20861;SDS011;10591;52.532;13.348;2023-07-22T00:56:41;7.40;;;6.40;;
20861;SDS011;10591;52.532;13.348;2023-07-22T00:59:13;8.10;;;7.30;;
20861;SDS011;10591;52.532;13.348;2023-07-22T01:01:44;7.62;;;7.03;;
20861;SDS011;10591;52.532;13.348;2023-07-22T01:04:15;7.60;;;7.00;;
20861;SDS011;10591;52.532;13.348;2023-07-22T01:06:49;7.58;;;6.83;;
20861;SDS011;10591;52.532;13.348;2023-07-22T01:09:23;7.50;;;6.90;;
20861;SDS011;10591;52.532;13.348;2023-07-22T01:11:57;7.62;;;7.03;;
20861;SDS011;10591;52.532;13.348;2023-07-22T01:14:26;8.05;;;7.35;;
20861;SDS011;10591;52.532;13.348;2023-07-22T01:16:57;8.50;;;7.80;;
20861;SDS011;10591;52.532;13.348;2023-07-22T01:19:28;7.78;;;7.08;;
20861;SDS011;10591;52.532;13.348;2023-07-22T01:22:00;7.85;;;7.17;;
20861;SDS011;10591;52.532;13.348;2023-07-22T01:24:38;8.10;;;7.40;;
20861;SDS011;10591;52.532;13.348;2023-07-22T01:27:11;8.30;;;7.50;;
20861;SDS011;10591;52.532;13.348;2023-07-22T01:29:44;8.33;;;7.53;;
20861;SDS011;10591;52.532;13.348;2023-07-22T01:32:15;7.95;;;7.35;;
20861;SDS011;10591;52.532;13.348;2023-07-22T01:34:46;8.23;;;7.53;;
20861;SDS011;10591;52.532;13.348;2023-07-22T01:37:18;8.78;;;7.67;;
20861;SDS011;10591;52.532;13.348;2023-07-22T01:39:49;8.38;;;7.67;;
20861;SDS011;10591;52.532;13.348;2023-07-22T01:42:21;9.33;;;8.48;;
20861;SDS011;10591;52.532;13.348;2023-07-22T01:44:52;8.98;;;8.18;;
20861;SDS011;10591;52.532;13.348;2023-07-22T01:47:25;8.20;;;7.40;;
20861;SDS011;10591;52.532;13.348;2023-07-22T01:49:56;9.45;;;8.23;;
20861;SDS011;10591;52.532;13.348;2023-07-22T01:52:28;9.45;;;8.45;;
20861;SDS011;10591;52.532;13.348;2023-07-22T01:54:58;9.33;;;8.40;;
20861;SDS011;10591;52.532;13.348;2023-07-22T01:57:29;9.75;;;8.75;;
20861;SDS011;10591;52.532;13.348;2023-07-22T02:00:01;8.45;;;7.75;;
20861;SDS011;10591;52.532;13.348;2023-07-22T02:02:34;9.05;;;8.15;;
20861;SDS011;10591;52.532;13.348;2023-07-22T02:05:08;9.25;;;8.45;;
20861;SDS011;10591;52.532;13.348;2023-07-22T02:07:39;8.80;;;8.05;;
20861;SDS011;10591;52.532;13.348;2023-07-22T02:10:11;8.83;;;7.87;;
20861;SDS011;10591;52.532;13.348;2023-07-22T02:12:42;8.80;;;8.00;;
20861;SDS011;10591;52.532;13.348;2023-07-22T02:15:13;8.50;;;7.45;;
20861;SDS011;10591;52.532;13.348;2023-07-22T02:17:44;9.45;;;8.33;;
20861;SDS011;10591;52.532;13.348;2023-07-22T02:20:18;9.00;;;8.30;;
20861;SDS011;10591;52.532;13.348;2023-07-22T02:22:49;9.05;;;8.28;;
20861;SDS011;10591;52.532;13.348;2023-07-22T02:25:20;9.43;;;8.53;;
20861;SDS011;10591;52.532;13.348;2023-07-22T02:27:51;8.20;;;7.45;;
20861;SDS011;10591;52.532;13.348;2023-07-22T02:30:22;8.70;;;7.92;;
20861;SDS011;10591;52.532;13.348;2023-07-22T02:32:53;8.15;;;7.45;;
20861;SDS011;10591;52.532;13.348;2023-07-22T02:35:24;8.35;;;7.55;;
20861;SDS011;10591;52.532;13.348;2023-07-22T02:37:54;7.50;;;6.90;;
20861;SDS011;10591;52.532;13.348;2023-07-22T02:40:25;7.42;;;6.75;;
20861;SDS011;10591;52.532;13.348;2023-07-22T02:42:56;6.72;;;6.22;;
20861;SDS011;10591;52.532;13.348;2023-07-22T02:45:26;7.60;;;6.83;;
20861;SDS011;10591;52.532;13.348;2023-07-22T02:47:57;7.10;;;6.50;;
20861;SDS011;10591;52.532;13.348;2023-07-22T02:50:28;7.00;;;6.30;;
20861;SDS011;10591;52.532;13.348;2023-07-22T02:53:01;8.25;;;7.10;;
20861;SDS011;10591;52.532;13.348;2023-07-22T02:55:32;7.12;;;6.30;;
20861;SDS011;10591;52.532;13.348;2023-07-22T02:58:03;6.35;;;5.75;;
20861;SDS011;10591;52.532;13.348;2023-07-22T03:00:36;6.58;;;5.97;;
20861;SDS011;10591;52.532;13.348;2023-07-22T03:03:07;6.83;;;6.17;;
20861;SDS011;10591;52.532;13.348;2023-07-22T03:05:40;6.50;;;5.90;;
20861;SDS011;10591;52.532;13.348;2023-07-22T03:08:11;6.40;;;5.80;;
20861;SDS011;10591;52.532;13.348;2023-07-22T03:10:42;7.25;;;6.45;;
20861;SDS011;10591;52.532;13.348;2023-07-22T03:13:15;7.50;;;6.78;;
20861;SDS011;10591;52.532;13.348;2023-07-22T03:15:46;6.65;;;6.15;;
20861;SDS011;10591;52.532;13.348;2023-07-22T03:18:20;6.37;;;5.87;;
20861;SDS011;10591;52.532;13.348;2023-07-22T03:20:51;7.55;;;6.37;;
20861;SDS011;10591;52.532;13.348;2023-07-22T03:23:22;6.90;;;5.80;;
20861;SDS011;10591;52.532;13.348;2023-07-22T03:25:53;6.47;;;5.87;;
20861;SDS011;10591;52.532;13.348;2023-07-22T03:28:24;6.42;;;5.83;;
20861;SDS011;10591;52.532;13.348;2023-07-22T03:30:58;6.77;;;6.17;;
20861;SDS011;10591;52.532;13.348;2023-07-22T03:33:28;7.35;;;6.67;;
20861;SDS011;10591;52.532;13.348;2023-07-22T03:35:59;7.15;;;6.55;;
20861;SDS011;10591;52.532;13.348;2023-07-22T03:38:30;7.60;;;6.97;;
20861;SDS011;10591;52.532;13.348;2023-07-22T03:41:00;7.60;;;6.90;;
20861;SDS011;10591;52.532;13.348;2023-07-22T03:43:32;7.90;;;7.20;;
20861;SDS011;10591;52.532;13.348;2023-07-22T03:46:02;7.33;;;6.73;;
20861;SDS011;10591;52.532;13.348;2023-07-22T03:48:33;8.13;;;7.45;;
20861;SDS011;10591;52.532;13.348;2023-07-22T03:51:05;7.60;;;6.90;;
20861;SDS011;10591;52.532;13.348;2023-07-22T03:53:38;8.28;;;6.80;;
20861;SDS011;10591;52.532;13.348;2023-07-22T03:56:12;7.35;;;6.75;;
20861;SDS011;10591;52.532;13.348;2023-07-22T03:58:43;7.53;;;6.55;;
20861;SDS011;10591;52.532;13.348;2023-07-22T04:01:17;7.95;;;6.67;;
20861;SDS011;10591;52.532;13.348;2023-07-22T04:03:48;7.28;;;6.67;;
20861;SDS011;10591;52.532;13.348;2023-07-22T04:06:18;6.95;;;6.30;;
20861;SDS011;10591;52.532;13.348;2023-07-22T04:08:51;6.37;;;5.78;;
20861;SDS011;10591;52.532;13.348;2023-07-22T04:11:22;6.70;;;6.17;;
20861;SDS011;10591;52.532;13.348;2023-07-22T04:13:53;7.00;;;6.40;;
20861;SDS011;10591;52.532;13.348;2023-07-22T04:16:25;6.53;;;5.92;;
20861;SDS011;10591;52.532;13.348;2023-07-22T04:18:56;6.00;;;5.50;;
20861;SDS011;10591;52.532;13.348;2023-07-22T04:21:27;5.97;;;5.40;;
20861;SDS011;10591;52.532;13.348;2023-07-22T04:23:59;6.65;;;6.05;;
20861;SDS011;10591;52.532;13.348;2023-07-22T04:26:30;7.78;;;5.67;;
20861;SDS011;10591;52.532;13.348;2023-07-22T04:29:01;5.90;;;5.40;;
20861;SDS011;10591;52.532;13.348;2023-07-22T04:31:32;6.40;;;5.80;;
20861;SDS011;10591;52.532;13.348;2023-07-22T04:34:04;6.20;;;5.60;;
20861;SDS011;10591;52.532;13.348;2023-07-22T04:36:35;7.00;;;5.58;;
20861;SDS011;10591;52.532;13.348;2023-07-22T04:39:07;5.40;;;4.62;;
20861;SDS011;10591;52.532;13.348;2023-07-22T04:41:39;6.05;;;5.03;;
20861;SDS011;10591;52.532;13.348;2023-07-22T04:44:11;5.50;;;5.00;;
20861;SDS011;10591;52.532;13.348;2023-07-22T04:46:42;5.77;;;5.27;;
20861;SDS011;10591;52.532;13.348;2023-07-22T04:49:13;5.47;;;4.97;;
20861;SDS011;10591;52.532;13.348;2023-07-22T04:51:46;6.08;;;5.47;;
20861;SDS011;10591;52.532;13.348;2023-07-22T04:54:18;7.62;;;5.50;;
20861;SDS011;10591;52.532;13.348;2023-07-22T04:56:48;5.33;;;4.83;;
20861;SDS011;10591;52.532;13.348;2023-07-22T04:59:20;5.85;;;5.25;;
20861;SDS011;10591;52.532;13.348;2023-07-22T05:01:53;6.10;;;5.10;;
20861;SDS011;10591;52.532;13.348;2023-07-22T05:04:26;6.37;;;4.90;;
20861;SDS011;10591;52.532;13.348;2023-07-22T05:06:58;5.20;;;4.72;;
20861;SDS011;10591;52.532;13.348;2023-07-22T05:09:30;5.37;;;4.87;;
20861;SDS011;10591;52.532;13.348;2023-07-22T05:12:02;4.75;;;4.30;;
20861;SDS011;10591;52.532;13.348;2023-07-22T05:14:33;4.50;;;4.15;;
20861;SDS011;10591;52.532;13.348;2023-07-22T05:17:05;5.97;;;4.12;;
20861;SDS011;10591;52.532;13.348;2023-07-22T05:19:38;4.90;;;4.50;;
20861;SDS011;10591;52.532;13.348;2023-07-22T05:22:09;4.83;;;4.40;;
20861;SDS011;10591;52.532;13.348;2023-07-22T05:24:40;4.97;;;4.50;;
20861;SDS011;10591;52.532;13.348;2023-07-22T05:27:11;5.03;;;4.53;;
20861;SDS011;10591;52.532;13.348;2023-07-22T05:29:42;4.95;;;4.30;;
20861;SDS011;10591;52.532;13.348;2023-07-22T05:32:15;5.10;;;4.37;;
20861;SDS011;10591;52.532;13.348;2023-07-22T05:34:47;5.47;;;4.58;;
20861;SDS011;10591;52.532;13.348;2023-07-22T05:37:18;6.00;;;5.37;;
20861;SDS011;10591;52.532;13.348;2023-07-22T05:39:50;5.90;;;5.30;;
20861;SDS011;10591;52.532;13.348;2023-07-22T05:42:23;6.00;;;5.50;;
20861;SDS011;10591;52.532;13.348;2023-07-22T05:44:56;5.10;;;4.70;;
20861;SDS011;10591;52.532;13.348;2023-07-22T05:47:28;5.70;;;5.10;;
20861;SDS011;10591;52.532;13.348;2023-07-22T05:50:00;5.70;;;5.08;;
20861;SDS011;10591;52.532;13.348;2023-07-22T05:52:33;7.20;;;5.70;;
20861;SDS011;10591;52.532;13.348;2023-07-22T05:55:06;6.30;;;5.70;;
20861;SDS011;10591;52.532;13.348;2023-07-22T05:57:37;6.10;;;5.60;;
20861;SDS011;10591;52.532;13.348;2023-07-22T06:00:10;5.47;;;4.97;;
20861;SDS011;10591;52.532;13.348;2023-07-22T06:02:42;6.00;;;5.40;;
20861;SDS011;10591;52.532;13.348;2023-07-22T06:05:13;5.90;;;5.30;;
20861;SDS011;10591;52.532;13.348;2023-07-22T06:07:43;5.58;;;5.03;;
20861;SDS011;10591;52.532;13.348;2023-07-22T06:10:15;7.50;;;5.60;;
20861;SDS011;10591;52.532;13.348;2023-07-22T06:12:46;7.12;;;5.92;;
20861;SDS011;10591;52.532;13.348;2023-07-22T06:15:16;6.05;;;5.55;;
20861;SDS011;10591;52.532;13.348;2023-07-22T06:17:47;5.90;;;5.40;;
20861;SDS011;10591;52.532;13.348;2023-07-22T06:20:18;5.65;;;5.15;;
20861;SDS011;10591;52.532;13.348;2023-07-22T06:22:49;5.22;;;4.72;;
20861;SDS011;10591;52.532;13.348;2023-07-22T06:25:20;5.50;;;5.00;;
20861;SDS011;10591;52.532;13.348;2023-07-22T06:27:51;5.33;;;4.83;;
20861;SDS011;10591;52.532;13.348;2023-07-22T06:30:24;6.03;;;5.45;;
20861;SDS011;10591;52.532;13.348;2023-07-22T06:32:59;5.62;;;5.10;;
20861;SDS011;10591;52.532;13.348;2023-07-22T06:35:32;5.33;;;4.92;;
20861;SDS011;10591;52.532;13.348;2023-07-22T06:38:03;5.62;;;5.12;;
20861;SDS011;10591;52.532;13.348;2023-07-22T06:40:34;5.80;;;5.20;;
20861;SDS011;10591;52.532;13.348;2023-07-22T06:43:05;6.17;;;5.58;;
20861;SDS011;10591;52.532;13.348;2023-07-22T06:45:36;7.20;;;5.62;;
20861;SDS011;10591;52.532;13.348;2023-07-22T06:48:06;5.50;;;4.83;;
20861;SDS011;10591;52.532;13.348;2023-07-22T06:50:46;5.47;;;4.85;;
20861;SDS011;10591;52.532;13.348;2023-07-22T06:53:21;5.65;;;4.45;;
20861;SDS011;10591;52.532;13.348;2023-07-22T06:55:54;6.20;;;4.55;;
20861;SDS011;10591;52.532;13.348;2023-07-22T06:58:25;4.35;;;4.00;;
20861;SDS011;10591;52.532;13.348;2023-07-22T07:00:59;5.55;;;4.47;;
20861;SDS011;10591;52.532;13.348;2023-07-22T07:03:31;5.35;;;4.30;;
20861;SDS011;10591;52.532;13.348;2023-07-22T07:06:01;6.67;;;4.70;;
20861;SDS011;10591;52.532;13.348;2023-07-22T07:08:34;5.37;;;4.58;;
20861;SDS011;10591;52.532;13.348;2023-07-22T07:11:06;5.12;;;4.72;;
20861;SDS011;10591;52.532;13.348;2023-07-22T07:13:39;6.25;;;4.37;;
20861;SDS011;10591;52.532;13.348;2023-07-22T07:16:25;6.15;;;4.92;;
20861;SDS011;10591;52.532;13.348;2023-07-22T07:19:02;8.35;;;4.97;;
20861;SDS011;10591;52.532;13.348;2023-07-22T07:21:34;5.75;;;4.75;;
20861;SDS011;10591;52.532;13.348;2023-07-22T07:24:05;6.37;;;4.65;;
20861;SDS011;10591;52.532;13.348;2023-07-22T07:26:38;7.08;;;4.28;;
20861;SDS011;10591;52.532;13.348;2023-07-22T07:29:10;6.60;;;5.05;;
20861;SDS011;10591;52.532;13.348;2023-07-22T07:31:43;7.20;;;4.12;;
20861;SDS011;10591;52.532;13.348;2023-07-22T07:34:14;5.65;;;4.33;;
20861;SDS011;10591;52.532;13.348;2023-07-22T07:36:46;6.67;;;4.75;;
20861;SDS011;10591;52.532;13.348;2023-07-22T07:39:17;5.80;;;4.53;;
20861;SDS011;10591;52.532;13.348;2023-07-22T07:41:48;6.37;;;4.67;;
20861;SDS011;10591;52.532;13.348;2023-07-22T07:44:20;6.62;;;4.87;;
20861;SDS011;10591;52.532;13.348;2023-07-22T07:46:51;7.37;;;4.90;;
20861;SDS011;10591;52.532;13.348;2023-07-22T07:49:23;5.30;;;4.78;;
20861;SDS011;10591;52.532;13.348;2023-07-22T07:51:59;5.80;;;4.67;;
20861;SDS011;10591;52.532;13.348;2023-07-22T07:54:30;6.20;;;4.35;;
20861;SDS011;10591;52.532;13.348;2023-07-22T07:57:03;5.85;;;4.90;;
20861;SDS011;10591;52.532;13.348;2023-07-22T07:59:34;7.22;;;4.78;;
20861;SDS011;10591;52.532;13.348;2023-07-22T08:02:08;6.47;;;4.53;;
20861;SDS011;10591;52.532;13.348;2023-07-22T08:04:41;10.48;;;5.50;;
20861;SDS011;10591;52.532;13.348;2023-07-22T08:07:15;8.53;;;5.28;;
20861;SDS011;10591;52.532;13.348;2023-07-22T08:09:49;6.35;;;4.65;;
20861;SDS011;10591;52.532;13.348;2023-07-22T08:12:22;6.33;;;4.47;;
20861;SDS011;10591;52.532;13.348;2023-07-22T08:14:54;6.03;;;4.85;;
20861;SDS011;10591;52.532;13.348;2023-07-22T08:17:25;6.90;;;4.75;;
20861;SDS011;10591;52.532;13.348;2023-07-22T08:19:56;5.53;;;4.97;;
20861;SDS011;10591;52.532;13.348;2023-07-22T08:22:30;8.73;;;5.28;;
20861;SDS011;10591;52.532;13.348;2023-07-22T08:25:00;5.17;;;4.67;;
20861;SDS011;10591;52.532;13.348;2023-07-22T08:27:31;5.75;;;4.67;;
20861;SDS011;10591;52.532;13.348;2023-07-22T08:30:02;7.25;;;5.12;;
20861;SDS011;10591;52.532;13.348;2023-07-22T08:32:33;5.97;;;4.87;;
20861;SDS011;10591;52.532;13.348;2023-07-22T08:35:04;5.55;;;4.70;;
20861;SDS011;10591;52.532;13.348;2023-07-22T08:37:37;4.75;;;4.33;;
20861;SDS011;10591;52.532;13.348;2023-07-22T08:40:09;5.90;;;4.87;;
20861;SDS011;10591;52.532;13.348;2023-07-22T08:42:44;5.85;;;4.40;;
20861;SDS011;10591;52.532;13.348;2023-07-22T08:45:17;6.97;;;5.00;;
20861;SDS011;10591;52.532;13.348;2023-07-22T08:47:50;7.80;;;4.87;;
20861;SDS011;10591;52.532;13.348;2023-07-22T08:50:26;5.50;;;4.60;;
20861;SDS011;10591;52.532;13.348;2023-07-22T08:52:58;6.67;;;5.25;;
20861;SDS011;10591;52.532;13.348;2023-07-22T08:55:32;8.85;;;5.15;;
20861;SDS011;10591;52.532;13.348;2023-07-22T08:58:05;8.65;;;5.12;;
20861;SDS011;10591;52.532;13.348;2023-07-22T09:00:38;8.03;;;4.92;;
20861;SDS011;10591;52.532;13.348;2023-07-22T09:03:11;5.90;;;5.33;;
20861;SDS011;10591;52.532;13.348;2023-07-22T09:05:42;9.08;;;5.60;;
20861;SDS011;10591;52.532;13.348;2023-07-22T09:08:14;5.97;;;5.10;;
20861;SDS011;10591;52.532;13.348;2023-07-22T09:10:46;6.40;;;5.03;;
20861;SDS011;10591;52.532;13.348;2023-07-22T09:13:20;6.22;;;5.10;;
20861;SDS011;10591;52.532;13.348;2023-07-22T09:15:52;7.95;;;4.33;;
20861;SDS011;10591;52.532;13.348;2023-07-22T09:18:25;7.25;;;4.20;;
20861;SDS011;10591;52.532;13.348;2023-07-22T09:20:57;5.85;;;4.55;;
20861;SDS011;10591;52.532;13.348;2023-07-22T09:23:37;5.30;;;4.80;;
20861;SDS011;10591;52.532;13.348;2023-07-22T09:26:14;5.50;;;4.62;;
20861;SDS011;10591;52.532;13.348;2023-07-22T09:28:52;6.90;;;4.85;;
20861;SDS011;10591;52.532;13.348;2023-07-22T09:31:25;5.72;;;4.90;;
20861;SDS011;10591;52.532;13.348;2023-07-22T09:34:09;5.65;;;4.90;;
20861;SDS011;10591;52.532;13.348;2023-07-22T09:36:55;5.47;;;4.67;;
20861;SDS011;10591;52.532;13.348;2023-07-22T09:39:24;5.67;;;3.72;;
20861;SDS011;10591;52.532;13.348;2023-07-22T09:41:55;4.53;;;4.10;;
20861;SDS011;10591;52.532;13.348;2023-07-22T09:44:30;4.40;;;4.00;;
20861;SDS011;10591;52.532;13.348;2023-07-22T09:47:06;6.78;;;5.12;;
20861;SDS011;10591;52.532;13.348;2023-07-22T09:49:41;5.47;;;4.15;;
20861;SDS011;10591;52.532;13.348;2023-07-22T09:52:17;4.12;;;3.58;;
20861;SDS011;10591;52.532;13.348;2023-07-22T09:54:48;4.55;;;3.58;;
20861;SDS011;10591;52.532;13.348;2023-07-22T09:57:19;5.42;;;4.30;;
20861;SDS011;10591;52.532;13.348;2023-07-22T09:59:52;4.67;;;4.15;;
20861;SDS011;10591;52.532;13.348;2023-07-22T10:02:23;4.53;;;3.67;;
20861;SDS011;10591;52.532;13.348;2023-07-22T10:04:56;4.40;;;3.70;;
20861;SDS011;10591;52.532;13.348;2023-07-22T10:07:31;3.52;;;3.20;;
20861;SDS011;10591;52.532;13.348;2023-07-22T10:10:05;3.85;;;3.45;;
20861;SDS011;10591;52.532;13.348;2023-07-22T10:12:42;5.42;;;3.50;;
20861;SDS011;10591;52.532;13.348;2023-07-22T10:15:14;4.37;;;3.72;;
20861;SDS011;10591;52.532;13.348;2023-07-22T10:17:47;3.92;;;3.52;;
20861;SDS011;10591;52.532;13.348;2023-07-22T10:20:19;5.60;;;3.40;;
20861;SDS011;10591;52.532;13.348;2023-07-22T10:22:50;5.47;;;3.72;;
20861;SDS011;10591;52.532;13.348;2023-07-22T10:25:21;3.92;;;3.22;;
20861;SDS011;10591;52.532;13.348;2023-07-22T10:27:53;4.78;;;3.60;;
20861;SDS011;10591;52.532;13.348;2023-07-22T10:30:26;5.33;;;3.52;;
20861;SDS011;10591;52.532;13.348;2023-07-22T10:32:57;4.40;;;3.58;;
20861;SDS011;10591;52.532;13.348;2023-07-22T10:38:08;4.03;;;3.42;;
20861;SDS011;10591;52.532;13.348;2023-07-22T10:40:46;4.03;;;3.45;;
20861;SDS011;10591;52.532;13.348;2023-07-22T10:43:24;4.95;;;3.92;;
20861;SDS011;10591;52.532;13.348;2023-07-22T10:45:58;3.90;;;3.17;;
20861;SDS011;10591;52.532;13.348;2023-07-22T10:48:35;4.30;;;3.90;;
20861;SDS011;10591;52.532;13.348;2023-07-22T10:51:12;3.62;;;3.27;;
20861;SDS011;10591;52.532;13.348;2023-07-22T10:53:46;4.35;;;3.92;;
20861;SDS011;10591;52.532;13.348;2023-07-22T10:56:19;4.12;;;3.72;;
20861;SDS011;10591;52.532;13.348;2023-07-22T10:58:56;4.17;;;3.42;;
20861;SDS011;10591;52.532;13.348;2023-07-22T11:01:33;4.28;;;3.47;;
20861;SDS011;10591;52.532;13.348;2023-07-22T11:06:53;6.10;;;3.87;;
20861;SDS011;10591;52.532;13.348;2023-07-22T11:12:12;5.47;;;3.55;;
20861;SDS011;10591;52.532;13.348;2023-07-22T11:14:49;4.33;;;3.92;;
20861;SDS011;10591;52.532;13.348;2023-07-22T11:17:29;4.22;;;3.83;;
20861;SDS011;10591;52.532;13.348;2023-07-22T11:20:01;4.65;;;4.12;;
20861;SDS011;10591;52.532;13.348;2023-07-22T11:22:32;4.28;;;3.87;;
20861;SDS011;10591;52.532;13.348;2023-07-22T11:25:03;5.42;;;4.15;;
20861;SDS011;10591;52.532;13.348;2023-07-22T11:27:35;5.47;;;3.90;;
20861;SDS011;10591;52.532;13.348;2023-07-22T11:30:10;5.45;;;4.03;;
20861;SDS011;10591;52.532;13.348;2023-07-22T11:32:44;6.25;;;4.33;;
20861;SDS011;10591;52.532;13.348;2023-07-22T11:35:17;6.80;;;6.10;;
20861;SDS011;10591;52.532;13.348;2023-07-22T11:37:48;6.12;;;4.83;;
20861;SDS011;10591;52.532;13.348;2023-07-22T11:40:21;4.87;;;4.47;;
20861;SDS011;10591;52.532;13.348;2023-07-22T11:42:51;5.30;;;4.55;;
20861;SDS011;10591;52.532;13.348;2023-07-22T11:45:24;5.42;;;4.28;;
20861;SDS011;10591;52.532;13.348;2023-07-22T11:47:55;5.17;;;4.67;;
20861;SDS011;10591;52.532;13.348;2023-07-22T11:50:33;5.25;;;4.62;;
20861;SDS011;10591;52.532;13.348;2023-07-22T11:53:10;5.65;;;5.15;;
20861;SDS011;10591;52.532;13.348;2023-07-22T11:55:36;6.95;;;4.95;;
20861;SDS011;10591;52.532;13.348;2023-07-22T11:58:11;5.35;;;4.45;;
20861;SDS011;10591;52.532;13.348;2023-07-22T12:00:46;5.58;;;5.03;;
20861;SDS011;10591;52.532;13.348;2023-07-22T12:03:18;6.97;;;6.33;;
20861;SDS011;10591;52.532;13.348;2023-07-22T12:05:49;8.83;;;5.60;;
20861;SDS011;10591;52.532;13.348;2023-07-22T12:08:20;6.62;;;5.92;;
20861;SDS011;10591;52.532;13.348;2023-07-22T12:10:57;5.92;;;5.33;;
20861;SDS011;10591;52.532;13.348;2023-07-22T12:13:41;6.33;;;5.72;;
20861;SDS011;10591;52.532;13.348;2023-07-22T12:16:07;5.45;;;4.78;;
20861;SDS011;10591;52.532;13.348;2023-07-22T12:18:46;5.12;;;4.45;;
20861;SDS011;10591;52.532;13.348;2023-07-22T12:21:17;5.35;;;4.83;;
20861;SDS011;10591;52.532;13.348;2023-07-22T12:23:48;5.58;;;4.53;;
20861;SDS011;10591;52.532;13.348;2023-07-22T12:26:19;5.53;;;4.97;;
20861;SDS011;10591;52.532;13.348;2023-07-22T12:28:51;6.60;;;6.00;;
20861;SDS011;10591;52.532;13.348;2023-07-22T12:31:23;6.28;;;5.25;;
20861;SDS011;10591;52.532;13.348;2023-07-22T12:33:55;5.28;;;4.78;;
20861;SDS011;10591;52.532;13.348;2023-07-22T12:36:26;5.12;;;4.62;;
20861;SDS011;10591;52.532;13.348;2023-07-22T12:38:57;5.42;;;4.80;;
20861;SDS011;10591;52.532;13.348;2023-07-22T12:41:27;6.15;;;5.50;;
20861;SDS011;10591;52.532;13.348;2023-07-22T12:43:59;6.37;;;5.78;;
20861;SDS011;10591;52.532;13.348;2023-07-22T12:46:31;6.10;;;5.50;;
20861;SDS011;10591;52.532;13.348;2023-07-22T12:49:05;6.58;;;4.97;;
20861;SDS011;10591;52.532;13.348;2023-07-22T12:51:36;5.55;;;4.97;;
20861;SDS011;10591;52.532;13.348;2023-07-22T12:54:07;6.50;;;5.15;;
20861;SDS011;10591;52.532;13.348;2023-07-22T12:56:40;5.35;;;4.85;;
20861;SDS011;10591;52.532;13.348;2023-07-22T12:59:12;5.20;;;4.80;;
20861;SDS011;10591;52.532;13.348;2023-07-22T13:01:42;6.10;;;5.37;;
20861;SDS011;10591;52.532;13.348;2023-07-22T13:04:14;5.67;;;5.10;;
20861;SDS011;10591;52.532;13.348;2023-07-22T13:06:44;5.20;;;4.70;;
20861;SDS011;10591;52.532;13.348;2023-07-22T13:09:15;6.10;;;4.83;;
20861;SDS011;10591;52.532;13.348;2023-07-22T13:11:46;5.50;;;5.00;;
20861;SDS011;10591;52.532;13.348;2023-07-22T13:14:17;5.75;;;5.15;;
20861;SDS011;10591;52.532;13.348;2023-07-22T13:16:48;5.97;;;5.10;;
20861;SDS011;10591;52.532;13.348;2023-07-22T13:19:20;5.40;;;4.65;;
20861;SDS011;10591;52.532;13.348;2023-07-22T13:21:53;6.10;;;4.75;;
20861;SDS011;10591;52.532;13.348;2023-07-22T13:24:24;5.67;;;5.00;;
20861;SDS011;10591;52.532;13.348;2023-07-22T13:26:56;5.37;;;4.87;;
20861;SDS011;10591;52.532;13.348;2023-07-22T13:29:26;5.25;;;4.72;;
20861;SDS011;10591;52.532;13.348;2023-07-22T13:31:57;9.20;;;5.35;;
20861;SDS011;10591;52.532;13.348;2023-07-22T13:34:28;5.42;;;4.85;;
20861;SDS011;10591;52.532;13.348;2023-07-22T13:36:59;5.25;;;4.75;;
20861;SDS011;10591;52.532;13.348;2023-07-22T13:39:33;5.62;;;4.78;;
20861;SDS011;10591;52.532;13.348;2023-07-22T13:42:05;5.60;;;5.08;;
20861;SDS011;10591;52.532;13.348;2023-07-22T13:44:35;7.90;;;5.85;;
20861;SDS011;10591;52.532;13.348;2023-07-22T13:47:08;5.50;;;4.95;;
20861;SDS011;10591;52.532;13.348;2023-07-22T13:49:40;5.12;;;4.62;;
20861;SDS011;10591;52.532;13.348;2023-07-22T13:52:11;5.22;;;4.37;;
20861;SDS011;10591;52.532;13.348;2023-07-22T13:54:45;5.17;;;4.67;;
20861;SDS011;10591;52.532;13.348;2023-07-22T13:57:15;5.10;;;4.50;;
20861;SDS011;10591;52.532;13.348;2023-07-22T13:59:47;5.12;;;4.62;;
20861;SDS011;10591;52.532;13.348;2023-07-22T14:02:19;4.67;;;4.28;;
20861;SDS011;10591;52.532;13.348;2023-07-22T14:04:51;5.17;;;4.67;;
20861;SDS011;10591;52.532;13.348;2023-07-22T14:07:24;5.47;;;4.97;;
20861;SDS011;10591;52.532;13.348;2023-07-22T14:09:55;5.37;;;4.87;;
20861;SDS011;10591;52.532;13.348;2023-07-22T14:12:26;5.78;;;4.95;;
20861;SDS011;10591;52.532;13.348;2023-07-22T14:14:59;5.72;;;5.12;;
20861;SDS011;10591;52.532;13.348;2023-07-22T14:17:30;5.30;;;4.80;;
20861;SDS011;10591;52.532;13.348;2023-07-22T14:20:03;4.78;;;4.35;;
20861;SDS011;10591;52.532;13.348;2023-07-22T14:22:35;5.10;;;4.70;;
20861;SDS011;10591;52.532;13.348;2023-07-22T14:25:08;5.40;;;4.33;;
20861;SDS011;10591;52.532;13.348;2023-07-22T14:27:40;5.45;;;4.78;;
20861;SDS011;10591;52.532;13.348;2023-07-22T14:30:10;5.12;;;4.60;;
20861;SDS011;10591;52.532;13.348;2023-07-22T14:32:43;4.58;;;4.17;;
20861;SDS011;10591;52.532;13.348;2023-07-22T14:35:15;5.03;;;4.60;;
20861;SDS011;10591;52.532;13.348;2023-07-22T14:37:46;5.22;;;4.83;;
20861;SDS011;10591;52.532;13.348;2023-07-22T14:40:18;7.08;;;4.95;;
20861;SDS011;10591;52.532;13.348;2023-07-22T14:42:49;4.67;;;4.28;;
20861;SDS011;10591;52.532;13.348;2023-07-22T14:45:21;4.80;;;4.40;;
20861;SDS011;10591;52.532;13.348;2023-07-22T14:47:54;5.65;;;5.03;;
20861;SDS011;10591;52.532;13.348;2023-07-22T14:50:26;5.15;;;4.72;;
20861;SDS011;10591;52.532;13.348;2023-07-22T14:52:56;5.75;;;5.25;;
20861;SDS011;10591;52.532;13.348;2023-07-22T14:55:28;5.20;;;4.80;;
20861;SDS011;10591;52.532;13.348;2023-07-22T14:57:59;5.40;;;4.80;;
20861;SDS011;10591;52.532;13.348;2023-07-22T15:00:30;5.30;;;4.90;;
20861;SDS011;10591;52.532;13.348;2023-07-22T15:03:02;5.65;;;4.50;;
20861;SDS011;10591;52.532;13.348;2023-07-22T15:05:33;5.55;;;5.05;;
20861;SDS011;10591;52.532;13.348;2023-07-22T15:08:04;5.40;;;4.90;;
20861;SDS011;10591;52.532;13.348;2023-07-22T15:10:37;5.87;;;5.25;;